createdAt,value
2022-11-05T00:02:05.988Z,11.27
2022-11-05T00:04:33.941Z,9.77
2022-11-05T00:07:06.453Z,11.65
2022-11-05T00:09:33.562Z,10.10
2022-11-05T00:12:03.232Z,10.10
2022-11-05T00:14:29.773Z,15.20
2022-11-05T00:16:56.243Z,17.75
2022-11-05T00:19:22.756Z,12.85
2022-11-05T00:21:50.637Z,13.18
2022-11-05T00:24:21.723Z,9.23
2022-11-05T00:29:17.315Z,11.60
2022-11-05T00:31:43.854Z,12.25
2022-11-05T00:34:10.400Z,13.43
2022-11-05T00:36:36.994Z,12.43
2022-11-05T00:39:06.754Z,17.30
2022-11-05T00:41:33.321Z,13.82
2022-11-05T00:44:00.051Z,17.17
2022-11-05T00:46:26.916Z,17.77
2022-11-05T00:48:53.479Z,12.60
2022-11-05T00:51:20.296Z,14.00
2022-11-05T00:53:46.808Z,13.35
2022-11-05T00:56:14.941Z,11.18
2022-11-05T00:58:41.589Z,17.35
2022-11-05T01:01:10.592Z,16.65
2022-11-05T01:03:39.369Z,19.35
2022-11-05T01:06:08.192Z,18.65
2022-11-05T01:08:34.807Z,12.95
2022-11-05T01:11:08.637Z,11.57
2022-11-05T01:13:36.704Z,17.30
2022-11-05T01:16:06.663Z,14.30
2022-11-05T01:18:33.267Z,11.93
2022-11-05T01:20:59.886Z,16.20
2022-11-05T01:23:26.624Z,17.80
2022-11-05T01:25:53.258Z,13.32
2022-11-05T01:28:19.878Z,12.88
2022-11-05T01:30:55.345Z,18.98
2022-11-05T01:33:21.869Z,15.25
2022-11-05T01:35:48.373Z,11.48
2022-11-05T01:38:14.849Z,14.30
2022-11-05T01:40:42.896Z,14.93
2022-11-05T01:43:16.013Z,15.70
2022-11-05T01:45:43.970Z,15.38
2022-11-05T01:48:16.481Z,20.67
2022-11-05T01:50:46.650Z,15.20
2022-11-05T01:53:19.726Z,14.48
2022-11-05T01:55:51.506Z,12.48
2022-11-05T01:58:22.361Z,15.23
2022-11-05T02:00:49.004Z,13.38
2022-11-05T02:03:18.088Z,17.17
2022-11-05T02:05:46.220Z,20.08
2022-11-05T02:08:19.893Z,19.20
2022-11-05T02:10:47.355Z,11.75
2022-11-05T02:13:14.078Z,16.83
2022-11-05T02:15:49.556Z,17.63
2022-11-05T02:18:27.648Z,17.23
2022-11-05T02:21:05.534Z,16.05
2022-11-05T02:23:57.738Z,12.77
2022-11-05T02:26:54.698Z,14.82
2022-11-05T02:29:54.333Z,15.57
2022-11-05T02:32:32.804Z,12.00
2022-11-05T02:35:11.345Z,17.92
2022-11-05T02:37:40.485Z,14.60
2022-11-05T02:40:16.493Z,14.68
2022-11-05T02:42:47.016Z,13.50
2022-11-05T02:45:26.566Z,13.85
2022-11-05T02:48:04.481Z,15.60
2022-11-05T02:50:34.836Z,15.07
2022-11-05T02:53:11.737Z,11.77
2022-11-05T02:55:42.202Z,13.15
2022-11-05T02:58:09.003Z,13.88
2022-11-05T03:00:48.758Z,13.10
2022-11-05T03:03:27.754Z,10.23
2022-11-05T03:06:23.772Z,11.35
2022-11-05T03:09:19.721Z,14.93
2022-11-05T03:11:55.007Z,10.13
2022-11-05T03:14:26.778Z,16.10
2022-11-05T03:17:01.881Z,13.00
2022-11-05T03:19:38.428Z,13.02
2022-11-05T03:22:10.167Z,16.42
2022-11-05T03:24:42.012Z,14.63
2022-11-05T03:27:11.660Z,13.63
2022-11-05T03:29:42.443Z,22.67
2022-11-05T03:32:10.860Z,12.27
2022-11-05T03:34:42.737Z,12.02
2022-11-05T03:37:11.029Z,12.07
2022-11-05T03:39:40.896Z,19.55
2022-11-05T03:42:11.483Z,14.02
2022-11-05T03:44:42.233Z,14.00
2022-11-05T03:47:13.741Z,17.52
2022-11-05T03:49:52.961Z,19.40
2022-11-05T03:52:23.809Z,15.57
2022-11-05T03:54:50.472Z,13.05
2022-11-05T03:57:21.727Z,10.25
2022-11-05T03:59:50.524Z,18.30
2022-11-05T04:02:19.850Z,14.13
2022-11-05T04:04:48.188Z,16.20
2022-11-05T04:07:14.896Z,21.13
2022-11-05T04:09:41.470Z,19.23
2022-11-05T04:12:08.523Z,18.15
2022-11-05T04:14:35.205Z,11.20
2022-11-05T04:17:01.740Z,15.35
2022-11-05T04:19:28.401Z,12.18
2022-11-05T04:21:56.311Z,11.10
2022-11-05T04:24:22.836Z,17.05
2022-11-05T04:26:49.305Z,10.98
2022-11-05T04:29:15.847Z,11.48
2022-11-05T04:31:42.375Z,10.63
2022-11-05T04:34:08.873Z,12.00
2022-11-05T04:36:35.608Z,13.93
2022-11-05T04:39:03.768Z,15.00
2022-11-05T04:41:30.384Z,9.18
2022-11-05T04:43:57.022Z,14.50
2022-11-05T04:46:23.734Z,12.73
2022-11-05T04:48:50.290Z,8.20
2022-11-05T04:51:16.871Z,13.90
2022-11-05T04:53:43.380Z,8.50
2022-11-05T04:56:12.864Z,9.68
2022-11-05T04:58:40.215Z,6.95
2022-11-05T05:01:06.910Z,11.02
2022-11-05T05:03:33.480Z,10.30
2022-11-05T05:06:03.688Z,12.10
2022-11-05T05:08:30.627Z,10.18
2022-11-05T05:11:01.618Z,8.90
2022-11-05T05:13:29.451Z,10.98
2022-11-05T05:15:55.955Z,11.02
2022-11-05T05:18:22.414Z,6.28
2022-11-05T05:20:48.907Z,11.70
2022-11-05T05:23:15.363Z,8.77
2022-11-05T05:25:41.909Z,14.20
2022-11-05T05:28:08.456Z,9.95
2022-11-05T05:30:36.371Z,13.45
2022-11-05T05:33:03.431Z,10.68
2022-11-05T05:35:30.078Z,9.35
2022-11-05T05:37:57.131Z,26.42
2022-11-05T05:40:23.634Z,10.13
2022-11-05T05:42:53.681Z,18.83
2022-11-05T05:45:20.289Z,9.88
2022-11-05T05:47:48.341Z,11.05
2022-11-05T05:50:15.047Z,11.85
2022-11-05T05:52:41.508Z,10.55
2022-11-05T05:55:08.820Z,18.38
2022-11-05T05:57:35.313Z,18.10
2022-11-05T06:00:01.915Z,12.95
2022-11-05T06:02:30.210Z,20.02
2022-11-05T06:04:58.396Z,14.73
2022-11-05T06:07:24.928Z,18.52
2022-11-05T06:09:51.464Z,11.07
2022-11-05T06:12:18.044Z,15.15
2022-11-05T06:14:44.566Z,13.05
2022-11-05T06:17:11.196Z,14.38
2022-11-05T06:19:37.742Z,17.35
2022-11-05T06:22:05.579Z,20.63
2022-11-05T06:24:32.209Z,15.15
2022-11-05T06:26:58.852Z,14.68
2022-11-05T06:29:25.390Z,13.55
2022-11-05T06:31:51.943Z,15.27
2022-11-05T06:34:18.409Z,15.27
2022-11-05T06:36:45.030Z,11.07
2022-11-05T06:39:13.169Z,13.30
2022-11-05T06:42:03.837Z,16.42
2022-11-05T06:44:26.502Z,13.23
2022-11-05T06:46:53.004Z,14.02
2022-11-05T06:49:19.557Z,13.43
2022-11-05T06:51:46.051Z,13.23
2022-11-05T06:54:13.937Z,16.08
2022-11-05T06:56:40.641Z,15.38
2022-11-05T06:59:07.137Z,10.40
2022-11-05T07:01:34.145Z,13.07
2022-11-05T07:04:00.975Z,8.63
2022-11-05T07:06:27.651Z,13.23
2022-11-05T07:08:54.183Z,13.73
2022-11-05T07:11:22.082Z,11.48
2022-11-05T07:13:48.637Z,14.75
2022-11-05T07:16:15.186Z,9.80
2022-11-05T07:18:41.745Z,21.13
2022-11-05T07:21:08.222Z,10.90
2022-11-05T07:23:34.697Z,12.77
2022-11-05T07:26:01.301Z,12.63
2022-11-05T07:28:29.201Z,9.35
2022-11-05T07:30:58.248Z,20.88
2022-11-05T07:33:24.735Z,15.10
2022-11-05T07:35:51.273Z,13.05
2022-11-05T07:38:17.795Z,16.52
2022-11-05T07:40:44.274Z,11.43
2022-11-05T07:43:11.116Z,13.23
2022-11-05T07:45:39.168Z,11.93
2022-11-05T07:48:06.422Z,13.55
2022-11-05T07:50:34.693Z,14.65
2022-11-05T07:53:02.159Z,19.92
2022-11-05T07:55:29.229Z,16.95
2022-11-05T08:01:25.767Z,18.20
2022-11-05T08:03:52.688Z,20.50
2022-11-05T08:06:19.276Z,18.50
2022-11-05T08:08:45.805Z,18.83
2022-11-05T08:11:12.413Z,16.95
2022-11-05T08:13:39.158Z,21.88
2022-11-05T08:16:06.529Z,13.52
2022-11-05T08:18:35.603Z,14.07
2022-11-05T08:21:04.183Z,13.10
2022-11-05T08:23:32.091Z,14.02
2022-11-05T08:25:58.945Z,15.60
2022-11-05T08:28:26.378Z,17.60
2022-11-05T08:30:54.705Z,14.50
2022-11-05T08:33:22.329Z,16.90
2022-11-05T08:35:50.690Z,19.27
2022-11-05T08:38:19.061Z,18.75
2022-11-05T08:40:52.895Z,14.98
2022-11-05T08:43:19.483Z,20.60
2022-11-05T08:45:46.181Z,16.42
2022-11-05T08:48:14.421Z,21.15
2022-11-05T08:50:41.203Z,18.08
2022-11-05T08:53:10.178Z,17.55
2022-11-05T08:55:37.300Z,18.40
2022-11-05T08:58:07.678Z,15.55
2022-11-05T09:00:36.693Z,13.43
2022-11-05T09:03:06.347Z,16.13
2022-11-05T09:05:34.215Z,11.10
2022-11-05T09:08:01.748Z,23.55
2022-11-05T09:10:29.715Z,15.68
2022-11-05T09:12:56.313Z,18.33
2022-11-05T09:15:22.986Z,14.07
2022-11-05T09:17:49.641Z,16.92
2022-11-05T09:20:16.140Z,15.27
2022-11-05T09:22:43.567Z,16.23
2022-11-05T09:25:10.351Z,12.95
2022-11-05T09:27:38.244Z,12.48
2022-11-05T09:30:05.636Z,13.07
2022-11-05T09:32:32.290Z,14.82
2022-11-05T09:34:59.069Z,11.73
2022-11-05T09:37:25.756Z,10.35
2022-11-05T09:39:52.479Z,12.73
2022-11-05T09:42:23.325Z,16.85
2022-11-05T09:44:54.468Z,13.52
2022-11-05T09:47:26.098Z,14.57
2022-11-05T09:49:55.016Z,10.77
2022-11-05T09:52:23.633Z,20.40
2022-11-05T09:54:50.551Z,10.73
2022-11-05T09:57:21.939Z,15.73
2022-11-05T09:59:53.289Z,10.95
2022-11-05T10:02:23.066Z,18.25
2022-11-05T10:04:53.914Z,18.13
2022-11-05T10:07:24.147Z,17.95
2022-11-05T10:09:56.600Z,13.55
2022-11-05T10:12:28.587Z,16.10
2022-11-05T10:15:07.111Z,15.70
2022-11-05T10:17:39.248Z,11.88
2022-11-05T10:20:15.043Z,9.85
2022-11-05T10:22:45.199Z,14.57
2022-11-05T10:25:18.839Z,14.02
2022-11-05T10:27:50.376Z,16.23
2022-11-05T10:30:18.874Z,12.30
2022-11-05T10:32:46.488Z,13.32
2022-11-05T10:35:15.691Z,16.67
2022-11-05T10:37:42.224Z,11.65
2022-11-05T10:40:16.273Z,15.60
2022-11-05T10:42:56.658Z,14.65
2022-11-05T10:45:32.621Z,19.25
2022-11-05T10:51:27.996Z,13.93
2022-11-05T10:54:01.840Z,10.32
2022-11-05T10:56:32.182Z,12.90
2022-11-05T10:59:00.137Z,16.42
2022-11-05T11:01:29.138Z,13.05
2022-11-05T11:04:07.122Z,7.55
2022-11-05T11:06:36.121Z,10.68
2022-11-05T11:09:06.460Z,9.05
2022-11-05T11:11:35.904Z,10.55
2022-11-05T11:14:05.139Z,15.55
2022-11-05T11:16:38.702Z,12.18
2022-11-05T11:19:23.797Z,13.52
2022-11-05T11:22:12.469Z,7.30
2022-11-05T11:24:40.633Z,9.77
2022-11-05T11:27:12.318Z,12.73
2022-11-05T11:29:46.449Z,10.98
2022-11-05T11:32:19.451Z,18.45
2022-11-05T11:34:51.135Z,12.05
2022-11-05T11:37:22.360Z,10.77
2022-11-05T11:39:52.110Z,8.82
2022-11-05T11:42:23.775Z,7.55
2022-11-05T11:44:51.549Z,8.88
2022-11-05T11:47:21.973Z,11.07
2022-11-05T11:49:51.637Z,5.03
2022-11-05T11:52:24.799Z,13.48
2022-11-05T11:54:52.064Z,5.35
2022-11-05T11:57:24.373Z,4.93
2022-11-05T12:00:08.305Z,8.30
2022-11-05T12:02:57.307Z,14.73
2022-11-05T12:05:35.507Z,7.78
2022-11-05T12:08:12.945Z,10.18
2022-11-05T12:10:54.755Z,4.80
2022-11-05T12:13:54.676Z,15.25
2022-11-05T12:16:33.770Z,8.45
2022-11-05T12:19:11.314Z,6.57
2022-11-05T12:21:53.077Z,12.55
2022-11-05T12:25:04.014Z,10.32
2022-11-05T12:27:45.760Z,8.77
2022-11-05T12:30:15.833Z,11.43
2022-11-05T12:33:06.690Z,8.82
2022-11-05T12:35:48.989Z,12.02
2022-11-05T12:38:32.480Z,7.53
2022-11-05T12:41:08.573Z,18.90
2022-11-05T12:43:48.906Z,8.35
2022-11-05T12:46:28.194Z,8.00
2022-11-05T12:49:18.288Z,7.80
2022-11-05T12:52:10.434Z,12.20
2022-11-05T12:54:52.900Z,4.78
2022-11-05T12:57:20.853Z,11.80
2022-11-05T12:59:52.274Z,5.97
2022-11-05T13:02:25.533Z,13.48
2022-11-05T13:04:56.424Z,7.20
2022-11-05T13:07:29.342Z,9.45
2022-11-05T13:10:00.811Z,9.48
2022-11-05T13:12:31.782Z,8.95
2022-11-05T13:15:03.031Z,15.00
2022-11-05T13:17:36.975Z,14.85
2022-11-05T13:20:16.979Z,15.35
2022-11-05T13:22:48.237Z,11.05
2022-11-05T13:25:19.928Z,7.93
2022-11-05T13:27:53.317Z,5.32
2022-11-05T13:30:22.587Z,11.20
2022-11-05T13:32:54.164Z,9.93
2022-11-05T13:35:24.955Z,7.32
2022-11-05T13:37:57.389Z,6.28
2022-11-05T13:40:36.142Z,6.70
2022-11-05T13:43:26.104Z,6.90
2022-11-05T13:46:20.012Z,6.82
2022-11-05T13:49:03.615Z,13.00
2022-11-05T13:51:49.956Z,11.60
2022-11-05T13:54:56.800Z,10.55
2022-11-05T13:57:48.308Z,8.82
2022-11-05T14:00:19.199Z,9.43
2022-11-05T14:02:51.428Z,8.70
2022-11-05T14:05:27.127Z,9.90
2022-11-05T14:07:54.727Z,11.10
2022-11-05T14:10:36.879Z,9.32
2022-11-05T14:13:18.717Z,10.93
2022-11-05T14:16:03.162Z,13.35
2022-11-05T14:18:44.851Z,8.57
2022-11-05T14:21:44.865Z,8.45
2022-11-05T14:24:42.171Z,9.13
2022-11-05T14:27:45.325Z,8.02
2022-11-05T14:30:43.994Z,10.02
2022-11-05T14:33:17.567Z,6.38
2022-11-05T14:35:44.124Z,4.60
2022-11-05T14:38:20.904Z,6.55
2022-11-05T14:40:48.689Z,11.32
2022-11-05T14:43:21.430Z,8.63
2022-11-05T14:45:57.030Z,6.45
2022-11-05T14:48:36.804Z,11.23
2022-11-05T14:51:24.281Z,7.60
2022-11-05T14:53:57.827Z,12.57
2022-11-05T14:56:24.667Z,11.40
2022-11-05T14:59:30.887Z,8.43
2022-11-05T15:02:01.486Z,6.43
2022-11-05T15:04:30.539Z,33.95
2022-11-05T15:07:31.764Z,10.73
2022-11-05T15:10:07.247Z,6.18
2022-11-05T15:12:41.095Z,5.90
2022-11-05T15:15:22.150Z,13.27
2022-11-05T15:17:58.192Z,10.82
2022-11-05T15:20:38.829Z,5.43
2022-11-05T15:23:11.279Z,7.45
2022-11-05T15:25:47.805Z,9.35
2022-11-05T15:28:28.970Z,10.40
2022-11-05T15:30:59.501Z,6.28
2022-11-05T15:33:26.214Z,11.75
2022-11-05T15:35:52.891Z,10.70
2022-11-05T15:38:29.353Z,6.85
2022-11-05T15:41:03.677Z,13.05
2022-11-05T15:43:30.504Z,8.85
2022-11-05T15:46:06.958Z,5.57
2022-11-05T15:48:35.603Z,7.43
2022-11-05T15:51:02.276Z,8.65
2022-11-05T15:54:23.867Z,14.57
2022-11-05T15:56:49.445Z,18.25
2022-11-05T15:59:18.273Z,9.27
2022-11-05T16:01:48.990Z,9.85
2022-11-05T16:04:18.663Z,14.45
2022-11-05T16:06:49.191Z,11.32
2022-11-05T16:09:21.922Z,14.77
2022-11-05T16:11:48.472Z,13.70
2022-11-05T16:14:17.540Z,13.48
2022-11-05T16:16:45.136Z,12.23
2022-11-05T16:19:40.226Z,7.72
2022-11-05T16:22:07.884Z,10.38
2022-11-05T16:24:34.591Z,12.45
2022-11-05T16:27:03.449Z,20.33
2022-11-05T16:29:32.958Z,14.13
2022-11-05T16:32:01.974Z,14.32
2022-11-05T16:34:33.449Z,14.15
2022-11-05T16:37:01.507Z,13.75
2022-11-05T16:39:28.029Z,13.32
2022-11-05T16:41:54.523Z,11.52
2022-11-05T16:44:21.085Z,10.35
2022-11-05T16:46:49.458Z,11.48
2022-11-05T16:49:17.165Z,16.10
2022-11-05T16:51:43.788Z,11.60
2022-11-05T16:54:11.648Z,11.05
2022-11-05T16:56:38.833Z,15.13
2022-11-05T16:59:05.375Z,11.13
2022-11-05T17:01:34.407Z,14.30
2022-11-05T17:04:01.154Z,13.93
2022-11-05T17:06:27.769Z,13.00
2022-11-05T17:08:54.341Z,12.35
2022-11-05T17:11:22.283Z,16.92
2022-11-05T17:13:48.849Z,14.93
2022-11-05T17:16:17.342Z,11.68
2022-11-05T17:18:44.241Z,17.80
2022-11-05T17:21:11.134Z,15.63
2022-11-05T17:23:37.830Z,13.63
2022-11-05T17:26:06.891Z,18.88
2022-11-05T17:28:35.642Z,26.05
2022-11-05T17:31:04.342Z,21.30
2022-11-05T17:33:31.102Z,13.90
2022-11-05T17:35:57.875Z,17.80
2022-11-05T17:38:25.929Z,14.02
2022-11-05T17:40:53.369Z,12.20
2022-11-05T17:43:20.334Z,25.85
2022-11-05T17:45:50.817Z,12.18
2022-11-05T17:48:18.155Z,14.85
2022-11-05T17:50:46.582Z,12.35
2022-11-05T17:53:14.751Z,17.30
2022-11-05T17:55:42.427Z,17.50
2022-11-05T17:58:09.570Z,13.45
2022-11-05T18:00:36.753Z,14.05
2022-11-05T18:03:05.403Z,12.43
2022-11-05T18:05:34.062Z,14.68
2022-11-05T18:08:00.790Z,11.73
2022-11-05T18:10:27.609Z,11.07
2022-11-05T18:12:54.526Z,13.35
2022-11-05T18:15:21.640Z,11.93
2022-11-05T18:17:48.285Z,13.23
2022-11-05T18:20:19.393Z,11.48
2022-11-05T18:22:48.098Z,14.48
2022-11-05T18:25:14.824Z,10.50
2022-11-05T18:27:41.995Z,10.02
2022-11-05T18:30:10.586Z,13.05
2022-11-05T18:32:38.056Z,10.73
2022-11-05T18:35:05.221Z,8.63
2022-11-05T18:37:33.144Z,8.30
2022-11-05T18:39:59.727Z,12.25
2022-11-05T18:42:26.268Z,9.95
2022-11-05T18:44:52.883Z,14.60
2022-11-05T18:47:19.605Z,19.08
2022-11-05T18:49:46.165Z,16.45
2022-11-05T18:52:12.807Z,12.07
2022-11-05T18:54:40.761Z,11.32
2022-11-05T18:57:07.521Z,13.40
2022-11-05T18:59:38.281Z,15.63
2022-11-05T19:02:06.340Z,11.13
2022-11-05T19:04:34.995Z,16.45
2022-11-05T19:07:04.709Z,10.77
2022-11-05T19:09:32.447Z,13.27
2022-11-05T19:12:00.970Z,10.98
2022-11-05T19:14:27.714Z,12.40
2022-11-05T19:16:54.702Z,14.43
2022-11-05T19:19:21.448Z,12.80
2022-11-05T19:21:47.998Z,11.38
2022-11-05T19:24:17.620Z,10.73
2022-11-05T19:26:44.581Z,13.10
2022-11-05T19:29:12.612Z,10.15
2022-11-05T19:31:39.212Z,10.45
2022-11-05T19:34:06.088Z,14.68
2022-11-05T19:36:33.533Z,15.35
2022-11-05T19:39:05.868Z,9.02
2022-11-05T19:41:32.459Z,10.45
2022-11-05T19:43:59.063Z,11.73
2022-11-05T19:46:28.379Z,13.23
2022-11-05T19:48:54.903Z,19.88
2022-11-05T19:51:23.370Z,21.58
2022-11-05T19:53:50.328Z,22.40
2022-11-05T19:56:19.953Z,22.63
2022-11-05T19:58:46.964Z,24.50
2022-11-05T20:01:15.268Z,17.67
2022-11-05T20:03:43.696Z,22.67
2022-11-05T20:06:12.583Z,22.42
2022-11-05T20:08:53.296Z,23.20
2022-11-05T20:11:26.601Z,20.90
2022-11-05T20:13:53.144Z,22.25
2022-11-05T20:16:21.725Z,26.13
2022-11-05T20:18:49.856Z,21.73
2022-11-05T20:21:16.984Z,29.42
2022-11-05T20:23:43.572Z,24.75
2022-11-05T20:26:11.249Z,30.25
2022-11-05T20:28:39.224Z,24.48
2022-11-05T20:31:10.490Z,26.35
2022-11-05T20:33:37.379Z,21.95
2022-11-05T20:36:16.039Z,27.73
2022-11-05T20:38:43.372Z,27.83
2022-11-05T20:41:12.059Z,28.20
2022-11-05T20:43:39.818Z,32.58
2022-11-05T20:46:06.496Z,29.42
2022-11-05T20:48:34.012Z,33.47
2022-11-05T20:51:06.471Z,36.83
2022-11-05T20:53:33.725Z,42.38
2022-11-05T20:56:05.057Z,47.58
2022-11-05T20:58:34.761Z,43.05
2022-11-05T21:01:01.382Z,48.78
2022-11-05T21:03:27.890Z,52.97
2022-11-05T21:05:55.859Z,44.45
2022-11-05T21:08:23.685Z,40.30
2022-11-05T21:10:51.520Z,24.20
2022-11-05T21:13:18.328Z,26.92
2022-11-05T21:15:48.389Z,24.23
2022-11-05T21:18:15.047Z,23.15
2022-11-05T21:20:41.593Z,22.92
2022-11-05T21:23:08.148Z,16.83
2022-11-05T21:25:38.546Z,13.85
2022-11-05T21:28:05.356Z,22.48
2022-11-05T21:30:32.131Z,17.58
2022-11-05T21:32:58.624Z,14.50
2022-11-05T21:35:25.280Z,10.90
2022-11-05T21:37:51.790Z,16.08
2022-11-05T21:40:18.304Z,20.33
2022-11-05T21:42:46.238Z,13.07
2022-11-05T21:45:12.743Z,11.30
2022-11-05T21:47:39.365Z,15.75
2022-11-05T21:50:06.916Z,17.73
2022-11-05T21:52:33.653Z,14.95
2022-11-05T21:55:00.105Z,10.48
2022-11-05T21:57:26.594Z,12.82
2022-11-05T21:59:54.928Z,11.93
2022-11-05T22:02:23.227Z,12.02
2022-11-05T22:04:51.935Z,15.27
2022-11-05T22:07:20.711Z,10.07
2022-11-05T22:09:47.675Z,10.20
2022-11-05T22:12:14.489Z,10.68
2022-11-05T22:14:41.054Z,9.35
2022-11-05T22:17:09.903Z,10.68
2022-11-05T22:19:36.700Z,14.73
2022-11-05T22:22:04.451Z,13.30
2022-11-05T22:24:31.205Z,10.95
2022-11-05T22:26:58.809Z,9.18
2022-11-05T22:29:25.427Z,13.48
2022-11-05T22:31:51.959Z,11.32
2022-11-05T22:34:20.166Z,14.45
2022-11-05T22:36:46.872Z,11.13
2022-11-05T22:39:13.848Z,11.65
2022-11-05T22:41:40.807Z,14.45
2022-11-05T22:44:07.538Z,15.48
2022-11-05T22:46:34.142Z,9.70
2022-11-05T22:49:00.619Z,13.13
2022-11-05T22:51:30.824Z,12.55
2022-11-05T22:53:57.964Z,15.65
2022-11-05T22:56:26.258Z,15.18
2022-11-05T22:58:52.928Z,15.57
2022-11-05T23:01:21.013Z,12.25
2022-11-05T23:03:49.338Z,16.45
2022-11-05T23:06:19.798Z,16.10
2022-11-05T23:08:47.691Z,15.93
2022-11-05T23:11:15.743Z,15.88
2022-11-05T23:13:42.280Z,18.60
2022-11-05T23:16:08.935Z,11.20
2022-11-05T23:18:35.457Z,14.82
2022-11-05T23:21:02.082Z,13.95
2022-11-05T23:23:28.688Z,14.55
2022-11-05T23:25:58.421Z,11.55
2022-11-05T23:28:25.071Z,11.45
2022-11-05T23:30:51.561Z,10.45
2022-11-05T23:33:18.069Z,12.15
2022-11-05T23:35:44.565Z,15.32
2022-11-05T23:38:11.323Z,14.32
2022-11-05T23:40:38.088Z,11.52
2022-11-05T23:43:05.974Z,9.27
2022-11-05T23:45:33.378Z,12.80
2022-11-05T23:48:06.619Z,14.40
2022-11-05T23:50:38.548Z,13.80
2022-11-05T23:53:06.724Z,12.60
2022-11-05T23:55:33.386Z,17.33
2022-11-05T23:57:59.972Z,15.40
